sensor_id;sensor_type;location;lat;lon;timestamp;P1;durP1;ratioP1;P2;durP2;ratioP2
10872;SDS011;34586;53.616;10.032;2022-11-15T00:01:35;43.93;;;30.20;;
10872;SDS011;34586;53.616;10.032;2022-11-15T00:04:05;42.23;;;28.73;;
10872;SDS011;34586;53.616;10.032;2022-11-15T00:06:31;41.97;;;28.33;;
10872;SDS011;34586;53.616;10.032;2022-11-15T00:08:57;42.00;;;29.40;;
10872;SDS011;34586;53.616;10.032;2022-11-15T00:11:24;39.13;;;28.77;;
10872;SDS011;34586;53.616;10.032;2022-11-15T00:13:49;38.80;;;28.90;;
10872;SDS011;34586;53.616;10.032;2022-11-15T00:16:15;41.07;;;29.00;;
10872;SDS011;34586;53.616;10.032;2022-11-15T00:18:40;41.53;;;28.17;;
10872;SDS011;34586;53.616;10.032;2022-11-15T00:21:07;41.03;;;29.57;;
10872;SDS011;34586;53.616;10.032;2022-11-15T00:23:35;40.57;;;28.80;;
10872;SDS011;34586;53.616;10.032;2022-11-15T00:26:02;38.33;;;28.27;;
10872;SDS011;34586;53.616;10.032;2022-11-15T00:28:27;42.20;;;29.13;;
10872;SDS011;34586;53.616;10.032;2022-11-15T00:30:53;38.77;;;28.10;;
10872;SDS011;34586;53.616;10.032;2022-11-15T00:33:19;40.10;;;28.50;;
10872;SDS011;34586;53.616;10.032;2022-11-15T00:35:44;41.87;;;28.90;;
10872;SDS011;34586;53.616;10.032;2022-11-15T00:38:10;39.87;;;28.67;;
10872;SDS011;34586;53.616;10.032;2022-11-15T00:40:36;42.03;;;30.43;;
10872;SDS011;34586;53.616;10.032;2022-11-15T00:43:01;38.80;;;28.23;;
10872;SDS011;34586;53.616;10.032;2022-11-15T00:45:27;40.87;;;28.07;;
10872;SDS011;34586;53.616;10.032;2022-11-15T00:47:52;39.73;;;28.30;;
10872;SDS011;34586;53.616;10.032;2022-11-15T00:50:18;34.93;;;26.10;;
10872;SDS011;34586;53.616;10.032;2022-11-15T00:52:44;38.17;;;27.50;;
10872;SDS011;34586;53.616;10.032;2022-11-15T00:55:16;34.20;;;25.67;;
10872;SDS011;34586;53.616;10.032;2022-11-15T00:57:42;37.43;;;26.10;;
10872;SDS011;34586;53.616;10.032;2022-11-15T01:00:09;37.20;;;27.03;;
10872;SDS011;34586;53.616;10.032;2022-11-15T01:02:35;38.30;;;26.53;;
10872;SDS011;34586;53.616;10.032;2022-11-15T01:05:01;34.43;;;25.73;;
10872;SDS011;34586;53.616;10.032;2022-11-15T01:07:27;37.07;;;26.67;;
10872;SDS011;34586;53.616;10.032;2022-11-15T01:09:52;36.43;;;26.37;;
10872;SDS011;34586;53.616;10.032;2022-11-15T01:12:18;36.03;;;27.03;;
10872;SDS011;34586;53.616;10.032;2022-11-15T01:14:43;35.97;;;25.93;;
10872;SDS011;34586;53.616;10.032;2022-11-15T01:17:09;34.00;;;25.80;;
10872;SDS011;34586;53.616;10.032;2022-11-15T01:19:34;34.57;;;25.77;;
10872;SDS011;34586;53.616;10.032;2022-11-15T01:22:00;35.87;;;27.37;;
10872;SDS011;34586;53.616;10.032;2022-11-15T01:24:26;37.00;;;26.43;;
10872;SDS011;34586;53.616;10.032;2022-11-15T01:26:52;33.37;;;24.87;;
10872;SDS011;34586;53.616;10.032;2022-11-15T01:29:17;37.43;;;26.73;;
10872;SDS011;34586;53.616;10.032;2022-11-15T01:31:43;37.27;;;26.37;;
10872;SDS011;34586;53.616;10.032;2022-11-15T01:34:08;36.77;;;26.23;;
10872;SDS011;34586;53.616;10.032;2022-11-15T01:36:34;37.03;;;25.27;;
10872;SDS011;34586;53.616;10.032;2022-11-15T01:38:59;37.47;;;26.33;;
10872;SDS011;34586;53.616;10.032;2022-11-15T01:41:26;35.97;;;25.37;;
10872;SDS011;34586;53.616;10.032;2022-11-15T01:46:56;31.20;;;24.63;;
10872;SDS011;34586;53.616;10.032;2022-11-15T01:49:24;35.77;;;25.37;;
10872;SDS011;34586;53.616;10.032;2022-11-15T01:51:54;35.90;;;26.23;;
10872;SDS011;34586;53.616;10.032;2022-11-15T01:54:21;33.80;;;24.63;;
10872;SDS011;34586;53.616;10.032;2022-11-15T01:56:50;36.03;;;25.87;;
10872;SDS011;34586;53.616;10.032;2022-11-15T01:59:21;34.37;;;24.93;;
10872;SDS011;34586;53.616;10.032;2022-11-15T02:01:47;33.73;;;24.03;;
10872;SDS011;34586;53.616;10.032;2022-11-15T02:04:15;34.33;;;24.87;;
10872;SDS011;34586;53.616;10.032;2022-11-15T02:06:44;33.87;;;25.00;;
10872;SDS011;34586;53.616;10.032;2022-11-15T02:09:11;36.97;;;25.90;;
10872;SDS011;34586;53.616;10.032;2022-11-15T02:11:38;31.30;;;23.57;;
10872;SDS011;34586;53.616;10.032;2022-11-15T02:14:04;32.07;;;24.37;;
10872;SDS011;34586;53.616;10.032;2022-11-15T02:27:27;31.23;;;23.47;;
10872;SDS011;34586;53.616;10.032;2022-11-15T02:35:57;31.57;;;23.20;;
10872;SDS011;34586;53.616;10.032;2022-11-15T02:41:12;31.17;;;23.57;;
10872;SDS011;34586;53.616;10.032;2022-11-15T02:43:53;33.07;;;24.47;;
10872;SDS011;34586;53.616;10.032;2022-11-15T02:49:32;33.10;;;24.50;;
10872;SDS011;34586;53.616;10.032;2022-11-15T02:51:59;33.50;;;23.67;;
10872;SDS011;34586;53.616;10.032;2022-11-15T02:54:26;35.00;;;25.13;;
10872;SDS011;34586;53.616;10.032;2022-11-15T02:57:00;30.60;;;23.17;;
10872;SDS011;34586;53.616;10.032;2022-11-15T02:59:33;33.53;;;24.40;;
10872;SDS011;34586;53.616;10.032;2022-11-15T03:05:04;32.80;;;23.73;;
10872;SDS011;34586;53.616;10.032;2022-11-15T03:08:06;32.93;;;24.30;;
10872;SDS011;34586;53.616;10.032;2022-11-15T03:18:45;34.00;;;23.00;;
10872;SDS011;34586;53.616;10.032;2022-11-15T03:21:15;29.07;;;21.87;;
10872;SDS011;34586;53.616;10.032;2022-11-15T03:23:43;30.97;;;23.13;;
10872;SDS011;34586;53.616;10.032;2022-11-15T03:26:12;30.77;;;22.47;;
10872;SDS011;34586;53.616;10.032;2022-11-15T03:28:44;30.07;;;22.73;;
10872;SDS011;34586;53.616;10.032;2022-11-15T03:31:17;30.33;;;22.37;;
10872;SDS011;34586;53.616;10.032;2022-11-15T03:34:04;27.67;;;20.83;;
10872;SDS011;34586;53.616;10.032;2022-11-15T03:36:33;28.93;;;21.73;;
10872;SDS011;34586;53.616;10.032;2022-11-15T03:39:00;29.87;;;21.30;;
10872;SDS011;34586;53.616;10.032;2022-11-15T03:41:49;27.23;;;20.97;;
10872;SDS011;34586;53.616;10.032;2022-11-15T03:49:46;29.97;;;21.10;;
10872;SDS011;34586;53.616;10.032;2022-11-15T03:52:19;28.33;;;21.77;;
10872;SDS011;34586;53.616;10.032;2022-11-15T03:54:49;27.37;;;21.30;;
10872;SDS011;34586;53.616;10.032;2022-11-15T03:57:19;28.97;;;20.90;;
10872;SDS011;34586;53.616;10.032;2022-11-15T03:59:45;27.77;;;21.60;;
10872;SDS011;34586;53.616;10.032;2022-11-15T04:02:11;30.53;;;22.07;;
10872;SDS011;34586;53.616;10.032;2022-11-15T04:04:37;26.77;;;20.67;;
10872;SDS011;34586;53.616;10.032;2022-11-15T04:07:02;29.33;;;21.60;;
10872;SDS011;34586;53.616;10.032;2022-11-15T04:09:28;27.60;;;20.87;;
10872;SDS011;34586;53.616;10.032;2022-11-15T04:11:54;33.40;;;21.87;;
10872;SDS011;34586;53.616;10.032;2022-11-15T04:14:19;27.33;;;20.70;;
10872;SDS011;34586;53.616;10.032;2022-11-15T04:16:45;27.60;;;20.63;;
10872;SDS011;34586;53.616;10.032;2022-11-15T04:19:10;30.10;;;21.90;;
10872;SDS011;34586;53.616;10.032;2022-11-15T04:21:55;24.63;;;19.50;;
10872;SDS011;34586;53.616;10.032;2022-11-15T04:24:39;28.60;;;20.33;;
10872;SDS011;34586;53.616;10.032;2022-11-15T04:27:04;25.50;;;19.20;;
10872;SDS011;34586;53.616;10.032;2022-11-15T04:29:30;26.10;;;20.70;;
10872;SDS011;34586;53.616;10.032;2022-11-15T04:32:02;25.63;;;19.27;;
10872;SDS011;34586;53.616;10.032;2022-11-15T04:34:29;30.27;;;21.40;;
10872;SDS011;34586;53.616;10.032;2022-11-15T04:36:55;25.73;;;20.57;;
10872;SDS011;34586;53.616;10.032;2022-11-15T04:39:40;28.60;;;20.37;;
10872;SDS011;34586;53.616;10.032;2022-11-15T04:42:06;26.83;;;20.63;;
10872;SDS011;34586;53.616;10.032;2022-11-15T04:44:32;25.93;;;20.63;;
10872;SDS011;34586;53.616;10.032;2022-11-15T04:46:58;25.20;;;20.30;;
10872;SDS011;34586;53.616;10.032;2022-11-15T04:49:23;28.13;;;20.70;;
10872;SDS011;34586;53.616;10.032;2022-11-15T04:51:49;28.13;;;19.80;;
10872;SDS011;34586;53.616;10.032;2022-11-15T04:54:14;27.17;;;20.10;;
10872;SDS011;34586;53.616;10.032;2022-11-15T04:56:40;28.30;;;21.40;;
10872;SDS011;34586;53.616;10.032;2022-11-15T04:59:06;26.97;;;20.37;;
10872;SDS011;34586;53.616;10.032;2022-11-15T05:01:31;25.97;;;19.90;;
10872;SDS011;34586;53.616;10.032;2022-11-15T05:03:57;27.57;;;20.20;;
10872;SDS011;34586;53.616;10.032;2022-11-15T05:06:41;23.00;;;18.93;;
10872;SDS011;34586;53.616;10.032;2022-11-15T05:09:06;27.10;;;20.93;;
10872;SDS011;34586;53.616;10.032;2022-11-15T05:11:32;25.17;;;19.13;;
10872;SDS011;34586;53.616;10.032;2022-11-15T05:13:57;25.10;;;18.93;;
10872;SDS011;34586;53.616;10.032;2022-11-15T05:16:23;23.00;;;18.20;;
10872;SDS011;34586;53.616;10.032;2022-11-15T05:18:52;22.53;;;18.50;;
10872;SDS011;34586;53.616;10.032;2022-11-15T05:21:19;23.60;;;18.03;;
10872;SDS011;34586;53.616;10.032;2022-11-15T05:23:45;23.53;;;18.43;;
10872;SDS011;34586;53.616;10.032;2022-11-15T05:26:11;24.03;;;17.70;;
10872;SDS011;34586;53.616;10.032;2022-11-15T05:28:37;22.80;;;18.43;;
10872;SDS011;34586;53.616;10.032;2022-11-15T05:31:03;21.23;;;17.27;;
10872;SDS011;34586;53.616;10.032;2022-11-15T05:33:34;23.50;;;18.97;;
10872;SDS011;34586;53.616;10.032;2022-11-15T05:39:03;21.53;;;17.20;;
10872;SDS011;34586;53.616;10.032;2022-11-15T05:41:32;23.70;;;17.87;;
10872;SDS011;34586;53.616;10.032;2022-11-15T05:44:02;26.27;;;18.73;;
10872;SDS011;34586;53.616;10.032;2022-11-15T05:46:30;22.67;;;16.53;;
10872;SDS011;34586;53.616;10.032;2022-11-15T05:48:55;21.53;;;17.20;;
10872;SDS011;34586;53.616;10.032;2022-11-15T05:51:22;22.67;;;18.77;;
10872;SDS011;34586;53.616;10.032;2022-11-15T05:53:48;21.33;;;17.27;;
10872;SDS011;34586;53.616;10.032;2022-11-15T05:56:15;24.23;;;17.87;;
10872;SDS011;34586;53.616;10.032;2022-11-15T05:58:41;22.53;;;17.77;;
10872;SDS011;34586;53.616;10.032;2022-11-15T06:01:07;22.63;;;17.73;;
10872;SDS011;34586;53.616;10.032;2022-11-15T06:03:33;20.07;;;16.93;;
10872;SDS011;34586;53.616;10.032;2022-11-15T06:05:58;20.00;;;17.30;;
10872;SDS011;34586;53.616;10.032;2022-11-15T06:08:24;22.33;;;17.20;;
10872;SDS011;34586;53.616;10.032;2022-11-15T06:10:50;20.57;;;17.33;;
10872;SDS011;34586;53.616;10.032;2022-11-15T06:13:15;21.50;;;16.77;;
10872;SDS011;34586;53.616;10.032;2022-11-15T06:15:41;23.33;;;17.67;;
10872;SDS011;34586;53.616;10.032;2022-11-15T06:18:06;21.70;;;16.87;;
10872;SDS011;34586;53.616;10.032;2022-11-15T06:20:32;19.27;;;16.43;;
10872;SDS011;34586;53.616;10.032;2022-11-15T06:22:58;21.80;;;17.37;;
10872;SDS011;34586;53.616;10.032;2022-11-15T06:25:25;19.80;;;16.33;;
10872;SDS011;34586;53.616;10.032;2022-11-15T06:27:55;20.80;;;16.20;;
10872;SDS011;34586;53.616;10.032;2022-11-15T06:30:22;23.97;;;17.10;;
10872;SDS011;34586;53.616;10.032;2022-11-15T06:32:49;21.93;;;17.60;;
10872;SDS011;34586;53.616;10.032;2022-11-15T06:35:14;22.53;;;17.60;;
10872;SDS011;34586;53.616;10.032;2022-11-15T06:37:40;23.93;;;18.03;;
10872;SDS011;34586;53.616;10.032;2022-11-15T06:40:07;20.57;;;16.77;;
10872;SDS011;34586;53.616;10.032;2022-11-15T06:42:33;22.83;;;17.43;;
10872;SDS011;34586;53.616;10.032;2022-11-15T06:44:59;22.53;;;17.60;;
10872;SDS011;34586;53.616;10.032;2022-11-15T06:47:24;21.00;;;17.33;;
10872;SDS011;34586;53.616;10.032;2022-11-15T06:49:50;23.00;;;18.23;;
10872;SDS011;34586;53.616;10.032;2022-11-15T06:52:16;19.90;;;17.40;;
10872;SDS011;34586;53.616;10.032;2022-11-15T06:54:44;21.73;;;16.80;;
10872;SDS011;34586;53.616;10.032;2022-11-15T06:57:09;19.63;;;16.90;;
10872;SDS011;34586;53.616;10.032;2022-11-15T06:59:35;22.70;;;18.07;;
10872;SDS011;34586;53.616;10.032;2022-11-15T07:02:01;20.73;;;16.87;;
10872;SDS011;34586;53.616;10.032;2022-11-15T07:04:27;23.43;;;17.57;;
10872;SDS011;34586;53.616;10.032;2022-11-15T07:06:52;21.13;;;17.93;;
10872;SDS011;34586;53.616;10.032;2022-11-15T07:09:18;20.67;;;17.30;;
10872;SDS011;34586;53.616;10.032;2022-11-15T07:11:43;21.67;;;17.27;;
10872;SDS011;34586;53.616;10.032;2022-11-15T07:14:09;20.53;;;17.07;;
10872;SDS011;34586;53.616;10.032;2022-11-15T07:16:35;20.63;;;16.23;;
10872;SDS011;34586;53.616;10.032;2022-11-15T07:19:01;26.37;;;17.77;;
10872;SDS011;34586;53.616;10.032;2022-11-15T07:21:27;21.57;;;17.30;;
10872;SDS011;34586;53.616;10.032;2022-11-15T07:23:53;22.37;;;17.10;;
10872;SDS011;34586;53.616;10.032;2022-11-15T07:26:18;21.63;;;17.60;;
10872;SDS011;34586;53.616;10.032;2022-11-15T07:28:44;23.00;;;18.17;;
10872;SDS011;34586;53.616;10.032;2022-11-15T07:31:10;19.03;;;16.67;;
10872;SDS011;34586;53.616;10.032;2022-11-15T07:33:36;19.93;;;16.43;;
10872;SDS011;34586;53.616;10.032;2022-11-15T07:36:02;21.20;;;16.97;;
10872;SDS011;34586;53.616;10.032;2022-11-15T07:38:30;21.23;;;16.53;;
10872;SDS011;34586;53.616;10.032;2022-11-15T07:40:56;22.40;;;17.30;;
10872;SDS011;34586;53.616;10.032;2022-11-15T07:43:23;20.43;;;17.13;;
10872;SDS011;34586;53.616;10.032;2022-11-15T07:45:49;19.67;;;16.13;;
10872;SDS011;34586;53.616;10.032;2022-11-15T07:48:14;19.60;;;15.60;;
10872;SDS011;34586;53.616;10.032;2022-11-15T07:50:40;21.40;;;16.37;;
10872;SDS011;34586;53.616;10.032;2022-11-15T07:53:07;20.73;;;16.00;;
10872;SDS011;34586;53.616;10.032;2022-11-15T07:55:34;19.83;;;16.47;;
10872;SDS011;34586;53.616;10.032;2022-11-15T07:58:09;21.40;;;16.87;;
10872;SDS011;34586;53.616;10.032;2022-11-15T08:00:36;18.83;;;16.50;;
10872;SDS011;34586;53.616;10.032;2022-11-15T08:03:03;19.03;;;16.13;;
10872;SDS011;34586;53.616;10.032;2022-11-15T08:05:33;20.17;;;16.07;;
10872;SDS011;34586;53.616;10.032;2022-11-15T08:08:00;17.53;;;15.30;;
10872;SDS011;34586;53.616;10.032;2022-11-15T08:10:26;19.37;;;16.10;;
10872;SDS011;34586;53.616;10.032;2022-11-15T08:13:03;21.40;;;16.77;;
10872;SDS011;34586;53.616;10.032;2022-11-15T08:15:33;20.80;;;15.83;;
10872;SDS011;34586;53.616;10.032;2022-11-15T08:18:00;17.93;;;15.33;;
10872;SDS011;34586;53.616;10.032;2022-11-15T08:20:28;19.40;;;15.40;;
10872;SDS011;34586;53.616;10.032;2022-11-15T08:22:55;19.17;;;16.30;;
10872;SDS011;34586;53.616;10.032;2022-11-15T08:25:22;22.73;;;16.30;;
10872;SDS011;34586;53.616;10.032;2022-11-15T08:27:51;19.90;;;16.27;;
10872;SDS011;34586;53.616;10.032;2022-11-15T08:30:18;20.23;;;15.97;;
10872;SDS011;34586;53.616;10.032;2022-11-15T08:32:43;19.97;;;15.53;;
10872;SDS011;34586;53.616;10.032;2022-11-15T08:35:09;21.03;;;16.73;;
10872;SDS011;34586;53.616;10.032;2022-11-15T08:37:35;21.33;;;16.83;;
10872;SDS011;34586;53.616;10.032;2022-11-15T08:40:01;21.57;;;16.77;;
10872;SDS011;34586;53.616;10.032;2022-11-15T08:42:26;21.83;;;16.10;;
10872;SDS011;34586;53.616;10.032;2022-11-15T08:44:52;19.27;;;16.20;;
10872;SDS011;34586;53.616;10.032;2022-11-15T08:47:18;18.87;;;15.23;;
10872;SDS011;34586;53.616;10.032;2022-11-15T08:49:43;19.07;;;15.53;;
10872;SDS011;34586;53.616;10.032;2022-11-15T08:52:09;18.17;;;15.50;;
10872;SDS011;34586;53.616;10.032;2022-11-15T08:54:34;17.70;;;15.07;;
10872;SDS011;34586;53.616;10.032;2022-11-15T08:57:00;19.40;;;16.03;;
10872;SDS011;34586;53.616;10.032;2022-11-15T08:59:25;18.63;;;14.97;;
10872;SDS011;34586;53.616;10.032;2022-11-15T09:01:51;17.07;;;14.00;;
10872;SDS011;34586;53.616;10.032;2022-11-15T09:04:17;18.03;;;15.40;;
10872;SDS011;34586;53.616;10.032;2022-11-15T09:06:42;17.80;;;15.53;;
10872;SDS011;34586;53.616;10.032;2022-11-15T09:09:08;17.80;;;15.60;;
10872;SDS011;34586;53.616;10.032;2022-11-15T09:11:33;19.43;;;15.60;;
10872;SDS011;34586;53.616;10.032;2022-11-15T09:13:59;21.10;;;15.90;;
10872;SDS011;34586;53.616;10.032;2022-11-15T09:16:25;16.97;;;15.00;;
10872;SDS011;34586;53.616;10.032;2022-11-15T09:18:50;17.37;;;14.93;;
10872;SDS011;34586;53.616;10.032;2022-11-15T09:21:17;18.73;;;14.33;;
10872;SDS011;34586;53.616;10.032;2022-11-15T09:23:42;17.20;;;15.30;;
10872;SDS011;34586;53.616;10.032;2022-11-15T09:26:08;19.77;;;14.77;;
10872;SDS011;34586;53.616;10.032;2022-11-15T09:28:34;19.37;;;14.10;;
10872;SDS011;34586;53.616;10.032;2022-11-15T09:31:02;17.20;;;13.97;;
10872;SDS011;34586;53.616;10.032;2022-11-15T09:33:30;16.83;;;15.03;;
10872;SDS011;34586;53.616;10.032;2022-11-15T09:36:00;17.20;;;14.67;;
10872;SDS011;34586;53.616;10.032;2022-11-15T09:38:27;19.00;;;15.03;;
10872;SDS011;34586;53.616;10.032;2022-11-15T09:40:57;19.30;;;14.20;;
10872;SDS011;34586;53.616;10.032;2022-11-15T09:49:45;17.77;;;12.93;;
10872;SDS011;34586;53.616;10.032;2022-11-15T09:52:12;16.03;;;12.83;;
10872;SDS011;34586;53.616;10.032;2022-11-15T09:54:39;15.87;;;13.50;;
10872;SDS011;34586;53.616;10.032;2022-11-15T09:57:15;18.23;;;13.77;;
10872;SDS011;34586;53.616;10.032;2022-11-15T09:59:59;17.53;;;14.17;;
10872;SDS011;34586;53.616;10.032;2022-11-15T10:02:39;16.50;;;13.50;;
10872;SDS011;34586;53.616;10.032;2022-11-15T10:05:17;15.53;;;13.53;;
10872;SDS011;34586;53.616;10.032;2022-11-15T10:10:27;13.90;;;12.50;;
10872;SDS011;34586;53.616;10.032;2022-11-15T10:12:57;14.50;;;12.43;;
10872;SDS011;34586;53.616;10.032;2022-11-15T10:15:23;14.97;;;12.70;;
10872;SDS011;34586;53.616;10.032;2022-11-15T10:18:06;16.33;;;13.07;;
10872;SDS011;34586;53.616;10.032;2022-11-15T10:20:56;15.73;;;12.60;;
10872;SDS011;34586;53.616;10.032;2022-11-15T10:23:27;15.70;;;11.60;;
10872;SDS011;34586;53.616;10.032;2022-11-15T10:25:55;14.33;;;12.07;;
10872;SDS011;34586;53.616;10.032;2022-11-15T10:28:26;15.27;;;11.90;;
10872;SDS011;34586;53.616;10.032;2022-11-15T10:30:57;15.83;;;12.50;;
10872;SDS011;34586;53.616;10.032;2022-11-15T10:33:26;15.57;;;12.60;;
10872;SDS011;34586;53.616;10.032;2022-11-15T10:41:36;16.40;;;12.03;;
10872;SDS011;34586;53.616;10.032;2022-11-15T10:46:37;14.20;;;12.17;;
10872;SDS011;34586;53.616;10.032;2022-11-15T10:49:13;13.90;;;11.60;;
10872;SDS011;34586;53.616;10.032;2022-11-15T10:51:43;14.80;;;11.80;;
10872;SDS011;34586;53.616;10.032;2022-11-15T10:54:25;15.60;;;11.60;;
10872;SDS011;34586;53.616;10.032;2022-11-15T10:57:21;16.33;;;13.30;;
10872;SDS011;34586;53.616;10.032;2022-11-15T10:59:53;12.60;;;10.60;;
10872;SDS011;34586;53.616;10.032;2022-11-15T11:05:02;13.30;;;10.57;;
10872;SDS011;34586;53.616;10.032;2022-11-15T11:07:32;11.70;;;10.30;;
10872;SDS011;34586;53.616;10.032;2022-11-15T11:10:21;12.60;;;9.90;;
10872;SDS011;34586;53.616;10.032;2022-11-15T11:12:46;15.00;;;10.63;;
10872;SDS011;34586;53.616;10.032;2022-11-15T11:15:13;14.47;;;10.03;;
10872;SDS011;34586;53.616;10.032;2022-11-15T11:28:51;10.40;;;9.07;;
10872;SDS011;34586;53.616;10.032;2022-11-15T11:40:33;11.67;;;9.67;;
10872;SDS011;34586;53.616;10.032;2022-11-15T11:48:56;10.03;;;9.00;;
10872;SDS011;34586;53.616;10.032;2022-11-15T11:51:28;10.23;;;8.93;;
10872;SDS011;34586;53.616;10.032;2022-11-15T11:54:03;15.63;;;9.83;;
10872;SDS011;34586;53.616;10.032;2022-11-15T11:56:34;14.90;;;10.03;;
10872;SDS011;34586;53.616;10.032;2022-11-15T11:59:48;11.97;;;10.40;;
10872;SDS011;34586;53.616;10.032;2022-11-15T12:01:57;12.07;;;9.90;;
10872;SDS011;34586;53.616;10.032;2022-11-15T12:04:38;10.53;;;9.03;;
10872;SDS011;34586;53.616;10.032;2022-11-15T12:12:48;10.13;;;8.90;;
10872;SDS011;34586;53.616;10.032;2022-11-15T12:15:30;10.03;;;9.03;;
10872;SDS011;34586;53.616;10.032;2022-11-15T12:18:00;11.37;;;8.70;;
10872;SDS011;34586;53.616;10.032;2022-11-15T12:20:27;10.33;;;9.20;;
10872;SDS011;34586;53.616;10.032;2022-11-15T12:23:03;11.50;;;9.00;;
10872;SDS011;34586;53.616;10.032;2022-11-15T12:25:31;11.03;;;9.30;;
10872;SDS011;34586;53.616;10.032;2022-11-15T12:30:50;10.77;;;8.67;;
10872;SDS011;34586;53.616;10.032;2022-11-15T12:33:42;11.03;;;9.03;;
10872;SDS011;34586;53.616;10.032;2022-11-15T12:36:11;11.20;;;8.60;;
10872;SDS011;34586;53.616;10.032;2022-11-15T12:38:58;9.63;;;8.63;;
10872;SDS011;34586;53.616;10.032;2022-11-15T12:43:58;8.97;;;8.07;;
10872;SDS011;34586;53.616;10.032;2022-11-15T12:48:56;10.47;;;8.10;;
10872;SDS011;34586;53.616;10.032;2022-11-15T13:02:41;8.40;;;7.60;;
10872;SDS011;34586;53.616;10.032;2022-11-15T13:17:39;11.00;;;8.60;;
10872;SDS011;34586;53.616;10.032;2022-11-15T13:35:45;8.97;;;8.03;;
10872;SDS011;34586;53.616;10.032;2022-11-15T13:40:52;9.60;;;8.30;;
10872;SDS011;34586;53.616;10.032;2022-11-15T13:46:10;10.60;;;8.77;;
10872;SDS011;34586;53.616;10.032;2022-11-15T13:48:43;14.90;;;8.80;;
10872;SDS011;34586;53.616;10.032;2022-11-15T13:51:14;10.40;;;8.57;;
10872;SDS011;34586;53.616;10.032;2022-11-15T13:53:44;11.40;;;8.63;;
10872;SDS011;34586;53.616;10.032;2022-11-15T13:56:16;9.13;;;7.80;;
10872;SDS011;34586;53.616;10.032;2022-11-15T13:58:45;9.80;;;8.47;;
10872;SDS011;34586;53.616;10.032;2022-11-15T14:01:14;9.33;;;7.70;;
10872;SDS011;34586;53.616;10.032;2022-11-15T14:03:52;8.97;;;8.07;;
10872;SDS011;34586;53.616;10.032;2022-11-15T14:06:21;11.23;;;8.10;;
10872;SDS011;34586;53.616;10.032;2022-11-15T14:11:37;10.07;;;8.67;;
10872;SDS011;34586;53.616;10.032;2022-11-15T14:14:14;10.27;;;7.77;;
10872;SDS011;34586;53.616;10.032;2022-11-15T14:16:42;9.10;;;7.17;;
10872;SDS011;34586;53.616;10.032;2022-11-15T14:19:10;8.47;;;7.63;;
10872;SDS011;34586;53.616;10.032;2022-11-15T14:21:37;8.70;;;7.73;;
10872;SDS011;34586;53.616;10.032;2022-11-15T14:24:33;7.97;;;7.17;;
10872;SDS011;34586;53.616;10.032;2022-11-15T14:27:15;8.17;;;7.37;;
10872;SDS011;34586;53.616;10.032;2022-11-15T14:29:41;9.03;;;7.67;;
10872;SDS011;34586;53.616;10.032;2022-11-15T14:34:55;9.20;;;7.90;;
10872;SDS011;34586;53.616;10.032;2022-11-15T14:37:26;7.87;;;6.93;;
10872;SDS011;34586;53.616;10.032;2022-11-15T14:39:54;8.67;;;7.77;;
10872;SDS011;34586;53.616;10.032;2022-11-15T14:42:20;8.47;;;7.50;;
10872;SDS011;34586;53.616;10.032;2022-11-15T14:44:47;8.00;;;7.17;;
10872;SDS011;34586;53.616;10.032;2022-11-15T14:47:13;9.53;;;7.43;;
10872;SDS011;34586;53.616;10.032;2022-11-15T14:49:39;9.77;;;8.13;;
10872;SDS011;34586;53.616;10.032;2022-11-15T14:52:15;10.47;;;8.00;;
10872;SDS011;34586;53.616;10.032;2022-11-15T14:54:48;11.57;;;8.20;;
10872;SDS011;34586;53.616;10.032;2022-11-15T14:57:13;10.53;;;7.87;;
10872;SDS011;34586;53.616;10.032;2022-11-15T14:59:39;9.00;;;7.63;;
10872;SDS011;34586;53.616;10.032;2022-11-15T15:02:18;9.50;;;8.13;;
10872;SDS011;34586;53.616;10.032;2022-11-15T15:04:46;8.17;;;7.37;;
10872;SDS011;34586;53.616;10.032;2022-11-15T15:07:12;10.00;;;7.93;;
10872;SDS011;34586;53.616;10.032;2022-11-15T15:09:37;9.87;;;7.90;;
10872;SDS011;34586;53.616;10.032;2022-11-15T15:12:03;10.73;;;7.80;;
10872;SDS011;34586;53.616;10.032;2022-11-15T15:14:31;12.23;;;8.37;;
10872;SDS011;34586;53.616;10.032;2022-11-15T15:16:57;8.60;;;7.37;;
10872;SDS011;34586;53.616;10.032;2022-11-15T15:19:23;10.30;;;8.63;;
10872;SDS011;34586;53.616;10.032;2022-11-15T15:21:48;11.03;;;8.17;;
10872;SDS011;34586;53.616;10.032;2022-11-15T15:24:14;9.70;;;7.60;;
10872;SDS011;34586;53.616;10.032;2022-11-15T15:26:40;11.20;;;8.87;;
10872;SDS011;34586;53.616;10.032;2022-11-15T15:29:06;10.47;;;8.30;;
10872;SDS011;34586;53.616;10.032;2022-11-15T15:31:33;8.87;;;8.07;;
10872;SDS011;34586;53.616;10.032;2022-11-15T15:33:59;11.37;;;8.87;;
10872;SDS011;34586;53.616;10.032;2022-11-15T15:36:25;11.23;;;8.40;;
10872;SDS011;34586;53.616;10.032;2022-11-15T15:38:51;8.93;;;8.03;;
10872;SDS011;34586;53.616;10.032;2022-11-15T15:41:17;9.33;;;8.33;;
10872;SDS011;34586;53.616;10.032;2022-11-15T15:43:43;9.70;;;8.20;;
10872;SDS011;34586;53.616;10.032;2022-11-15T15:46:12;10.07;;;8.57;;
10872;SDS011;34586;53.616;10.032;2022-11-15T15:48:40;9.50;;;8.47;;
10872;SDS011;34586;53.616;10.032;2022-11-15T15:51:05;9.83;;;8.30;;
10872;SDS011;34586;53.616;10.032;2022-11-15T15:53:31;11.93;;;9.30;;
10872;SDS011;34586;53.616;10.032;2022-11-15T15:55:57;10.37;;;9.03;;
10872;SDS011;34586;53.616;10.032;2022-11-15T15:58:23;11.80;;;10.43;;
10872;SDS011;34586;53.616;10.032;2022-11-15T16:00:48;12.80;;;9.70;;
10872;SDS011;34586;53.616;10.032;2022-11-15T16:03:14;16.77;;;11.43;;
10872;SDS011;34586;53.616;10.032;2022-11-15T16:05:40;14.03;;;10.40;;
10872;SDS011;34586;53.616;10.032;2022-11-15T16:08:05;11.93;;;10.07;;
10872;SDS011;34586;53.616;10.032;2022-11-15T16:10:34;12.07;;;9.67;;
10872;SDS011;34586;53.616;10.032;2022-11-15T16:13:00;12.67;;;9.90;;
10872;SDS011;34586;53.616;10.032;2022-11-15T16:15:26;12.60;;;9.87;;
10872;SDS011;34586;53.616;10.032;2022-11-15T16:17:55;10.37;;;9.20;;
10872;SDS011;34586;53.616;10.032;2022-11-15T16:20:24;12.67;;;9.93;;
10872;SDS011;34586;53.616;10.032;2022-11-15T16:23:05;10.77;;;9.40;;
10872;SDS011;34586;53.616;10.032;2022-11-15T16:25:55;10.27;;;8.87;;
10872;SDS011;34586;53.616;10.032;2022-11-15T16:28:22;10.17;;;9.00;;
10872;SDS011;34586;53.616;10.032;2022-11-15T16:30:49;11.70;;;10.07;;
10872;SDS011;34586;53.616;10.032;2022-11-15T16:33:34;11.27;;;9.70;;
10872;SDS011;34586;53.616;10.032;2022-11-15T16:36:00;9.80;;;8.80;;
10872;SDS011;34586;53.616;10.032;2022-11-15T16:38:26;10.50;;;8.70;;
10872;SDS011;34586;53.616;10.032;2022-11-15T16:40:52;10.20;;;9.07;;
10872;SDS011;34586;53.616;10.032;2022-11-15T16:43:17;12.23;;;9.80;;
10872;SDS011;34586;53.616;10.032;2022-11-15T16:45:43;10.70;;;9.60;;
10872;SDS011;34586;53.616;10.032;2022-11-15T16:48:25;9.90;;;8.77;;
10872;SDS011;34586;53.616;10.032;2022-11-15T16:50:55;11.33;;;8.80;;
10872;SDS011;34586;53.616;10.032;2022-11-15T16:53:22;12.27;;;9.23;;
10872;SDS011;34586;53.616;10.032;2022-11-15T16:55:47;9.90;;;8.90;;
10872;SDS011;34586;53.616;10.032;2022-11-15T16:58:13;9.73;;;8.73;;